createdAt,value
2018-02-18T00:02:06.559Z,37.60
2018-02-18T00:04:34.048Z,57.80
2018-02-18T00:07:02.326Z,47.13
2018-02-18T00:09:29.819Z,44.33
2018-02-18T00:11:58.097Z,36.10
2018-02-18T00:14:42.177Z,39.13
2018-02-18T00:17:09.683Z,36.03
2018-02-18T00:19:37.171Z,48.33
2018-02-18T00:22:04.670Z,36.67
2018-02-18T00:24:32.923Z,43.53
2018-02-18T00:27:00.426Z,45.40
2018-02-18T00:29:28.675Z,36.23
2018-02-18T00:31:56.189Z,43.23
2018-02-18T00:34:24.443Z,42.70
2018-02-18T00:36:51.953Z,43.97
2018-02-18T00:39:20.208Z,46.43
2018-02-18T00:41:47.723Z,41.17
2018-02-18T00:44:15.216Z,41.63
2018-02-18T00:46:42.724Z,43.90
2018-02-18T00:49:10.215Z,37.40
2018-02-18T00:51:38.495Z,49.17
2018-02-18T00:54:06.748Z,47.67
2018-02-18T00:56:34.263Z,42.13
2018-02-18T00:59:02.524Z,45.03
2018-02-18T01:01:30.038Z,36.70
2018-02-18T01:03:57.535Z,41.33
2018-02-18T01:06:25.812Z,41.40
2018-02-18T01:08:53.291Z,39.57
2018-02-18T01:11:20.810Z,43.10
2018-02-18T01:13:48.308Z,42.97
2018-02-18T01:16:15.809Z,36.23
2018-02-18T01:18:43.295Z,43.10
2018-02-18T01:21:10.804Z,41.27
2018-02-18T01:23:39.066Z,40.07
2018-02-18T01:26:06.577Z,37.93
2018-02-18T01:28:34.067Z,37.43
2018-02-18T01:31:01.561Z,43.57
2018-02-18T01:33:29.079Z,41.73
2018-02-18T01:35:56.588Z,36.23
2018-02-18T01:38:24.095Z,44.63
2018-02-18T01:40:51.593Z,51.43
2018-02-18T01:43:19.862Z,46.90
2018-02-18T01:45:48.124Z,42.50
2018-02-18T01:48:15.641Z,39.87
2018-02-18T01:50:43.133Z,47.23
2018-02-18T01:53:10.643Z,38.50
2018-02-18T01:55:38.135Z,40.67
2018-02-18T01:58:06.411Z,33.17
2018-02-18T02:00:33.909Z,37.00
2018-02-18T02:03:01.411Z,36.17
2018-02-18T02:05:28.908Z,37.57
2018-02-18T02:07:56.426Z,43.10
2018-02-18T02:10:23.923Z,40.67
2018-02-18T02:12:51.439Z,44.97
2018-02-18T02:15:18.933Z,36.90
2018-02-18T02:17:46.457Z,40.70
2018-02-18T02:20:13.967Z,40.13
2018-02-18T02:22:42.235Z,37.17
2018-02-18T02:25:09.722Z,43.60
2018-02-18T02:27:38.007Z,39.93
2018-02-18T02:30:05.496Z,39.73
2018-02-18T02:32:33.004Z,52.53
2018-02-18T02:35:00.496Z,40.33
2018-02-18T02:37:28.020Z,42.43
2018-02-18T02:39:56.305Z,35.00
2018-02-18T02:42:23.824Z,43.50
2018-02-18T02:44:51.321Z,44.60
2018-02-18T02:47:19.608Z,44.67
2018-02-18T02:49:47.858Z,41.30
2018-02-18T02:52:15.410Z,41.50
2018-02-18T02:54:42.879Z,55.73
2018-02-18T02:57:10.386Z,46.83
2018-02-18T02:59:37.880Z,41.83
2018-02-18T03:02:06.153Z,47.77
2018-02-18T03:04:33.643Z,42.07
2018-02-18T03:07:01.160Z,38.07
2018-02-18T03:09:28.659Z,44.40
2018-02-18T03:11:56.176Z,40.80
2018-02-18T03:14:23.673Z,44.63
2018-02-18T03:16:51.206Z,41.27
2018-02-18T03:19:18.707Z,42.60
2018-02-18T03:21:46.219Z,43.20
2018-02-18T03:24:13.700Z,41.57
2018-02-18T03:26:41.967Z,47.20
2018-02-18T03:29:09.452Z,37.80
2018-02-18T03:31:37.733Z,41.43
2018-02-18T03:34:05.995Z,40.60
2018-02-18T03:36:33.512Z,43.27
2018-02-18T03:39:01.772Z,42.57
2018-02-18T03:41:29.281Z,41.27
2018-02-18T03:43:56.798Z,38.80
2018-02-18T03:46:24.288Z,48.93
2018-02-18T03:48:51.801Z,44.10
2018-02-18T03:51:19.297Z,52.63
2018-02-18T03:53:46.815Z,43.40
2018-02-18T03:56:15.076Z,44.50
2018-02-18T03:58:42.579Z,46.40
2018-02-18T04:01:10.831Z,40.87
2018-02-18T04:03:38.334Z,41.73
2018-02-18T04:06:05.836Z,52.93
2018-02-18T04:08:33.365Z,47.43
2018-02-18T04:11:00.852Z,49.50
2018-02-18T04:13:29.128Z,42.30
2018-02-18T04:15:57.375Z,50.03
2018-02-18T04:18:24.892Z,47.73
2018-02-18T04:20:53.148Z,48.20
2018-02-18T04:23:20.659Z,48.33
2018-02-18T04:25:48.907Z,48.30
2018-02-18T04:28:16.428Z,51.40
2018-02-18T04:30:43.928Z,47.13
2018-02-18T04:33:11.445Z,47.87
2018-02-18T04:35:39.700Z,53.27
2018-02-18T04:38:07.213Z,56.40
2018-02-18T04:40:35.471Z,43.87
2018-02-18T04:43:02.990Z,47.93
2018-02-18T04:45:30.489Z,45.10
2018-02-18T04:47:58.000Z,48.43
2018-02-18T04:50:26.263Z,51.80
2018-02-18T04:52:53.775Z,57.47
2018-02-18T04:55:21.273Z,63.27
2018-02-18T04:57:48.792Z,49.97
2018-02-18T05:00:16.328Z,48.10
2018-02-18T05:02:43.847Z,50.77
2018-02-18T05:05:12.108Z,62.20
2018-02-18T05:07:39.626Z,51.70
2018-02-18T05:10:07.116Z,51.23
2018-02-18T05:12:34.635Z,47.53
2018-02-18T05:15:02.127Z,56.60
2018-02-18T05:17:29.640Z,49.47
2018-02-18T05:19:57.141Z,47.40
2018-02-18T05:22:24.648Z,49.70
2018-02-18T05:24:52.141Z,52.53
2018-02-18T05:27:19.655Z,54.30
2018-02-18T05:29:47.171Z,51.17
2018-02-18T05:32:14.679Z,49.70
2018-02-18T05:34:42.165Z,58.03
2018-02-18T05:37:09.657Z,54.43
2018-02-18T05:39:37.944Z,64.07
2018-02-18T05:42:05.436Z,47.10
2018-02-18T05:44:32.971Z,51.73
2018-02-18T05:47:01.233Z,51.53
2018-02-18T05:49:30.356Z,48.73
2018-02-18T05:51:57.861Z,53.00
2018-02-18T05:54:25.369Z,50.20
2018-02-18T05:56:52.871Z,50.80
2018-02-18T05:59:20.384Z,54.57
2018-02-18T06:01:47.884Z,57.97
2018-02-18T06:04:15.390Z,59.17
2018-02-18T06:06:43.645Z,71.20
2018-02-18T06:09:11.160Z,57.07
2018-02-18T06:11:39.428Z,52.70
2018-02-18T06:14:06.938Z,53.10
2018-02-18T06:16:34.432Z,46.43
2018-02-18T06:19:01.947Z,50.33
2018-02-18T06:21:30.199Z,55.77
2018-02-18T06:23:57.700Z,51.20
2018-02-18T06:26:25.181Z,56.30
2018-02-18T06:28:52.706Z,48.43
2018-02-18T06:31:20.201Z,55.87
2018-02-18T06:33:47.718Z,57.23
2018-02-18T06:36:15.221Z,50.70
2018-02-18T06:38:42.740Z,50.43
2018-02-18T06:41:11.003Z,50.70
2018-02-18T06:43:38.524Z,54.40
2018-02-18T06:46:06.030Z,51.60
2018-02-18T06:48:33.590Z,48.20
2018-02-18T06:51:01.041Z,57.50
2018-02-18T06:53:28.552Z,52.63
2018-02-18T06:55:56.051Z,49.10
2018-02-18T06:58:24.333Z,54.50
2018-02-18T07:00:52.603Z,53.23
2018-02-18T07:03:20.116Z,54.80
2018-02-18T07:05:47.621Z,58.27
2018-02-18T07:08:15.131Z,53.70
2018-02-18T07:10:43.392Z,54.33
2018-02-18T07:13:10.899Z,52.13
2018-02-18T07:15:38.424Z,57.83
2018-02-18T07:18:05.931Z,48.60
2018-02-18T07:20:34.196Z,46.87
2018-02-18T07:23:01.712Z,50.40
2018-02-18T07:25:29.244Z,49.73
2018-02-18T07:27:56.728Z,49.77
2018-02-18T07:30:24.995Z,49.13
2018-02-18T07:32:52.500Z,46.13
2018-02-18T07:35:20.752Z,48.30
2018-02-18T07:37:48.260Z,47.07
2018-02-18T07:40:15.751Z,44.33
2018-02-18T07:42:43.271Z,48.83
2018-02-18T07:45:10.782Z,45.50
2018-02-18T07:47:38.272Z,49.57
2018-02-18T07:50:05.785Z,52.57
2018-02-18T07:52:33.288Z,47.37
2018-02-18T07:55:00.796Z,47.50
2018-02-18T07:57:28.285Z,43.73
2018-02-18T07:59:55.804Z,42.67
2018-02-18T08:02:23.314Z,57.63
2018-02-18T08:04:50.835Z,42.70
2018-02-18T08:07:19.121Z,39.93
2018-02-18T08:09:47.412Z,45.47
2018-02-18T08:12:15.676Z,47.67
2018-02-18T08:14:43.195Z,44.57
2018-02-18T08:17:10.688Z,40.50
2018-02-18T08:19:38.196Z,44.47
2018-02-18T08:22:06.451Z,42.80
2018-02-18T08:24:33.961Z,45.50
2018-02-18T08:27:02.241Z,41.03
2018-02-18T08:29:30.527Z,41.77
2018-02-18T08:31:58.020Z,43.87
2018-02-18T08:34:25.544Z,47.70
2018-02-18T08:36:53.035Z,45.20
2018-02-18T08:39:20.556Z,44.73
2018-02-18T08:41:48.055Z,50.33
2018-02-18T08:44:15.572Z,47.93
2018-02-18T08:46:43.064Z,42.17
2018-02-18T08:49:10.584Z,43.20
2018-02-18T08:51:38.083Z,43.57
2018-02-18T08:54:05.609Z,43.30
2018-02-18T08:56:33.092Z,45.97
2018-02-18T08:59:00.612Z,50.90
2018-02-18T09:01:28.125Z,77.10
2018-02-18T09:03:56.424Z,66.33
2018-02-18T09:06:23.916Z,46.53
2018-02-18T09:08:52.192Z,43.60
2018-02-18T09:11:19.693Z,43.27
2018-02-18T09:13:47.207Z,47.63
2018-02-18T09:16:14.965Z,44.53
2018-02-18T09:18:42.481Z,46.20
2018-02-18T09:21:10.740Z,53.13
2018-02-18T09:23:38.262Z,41.40
2018-02-18T09:26:05.751Z,55.77
2018-02-18T09:28:33.265Z,98.80
2018-02-18T09:31:00.764Z,45.33
2018-02-18T09:33:29.035Z,39.60
2018-02-18T09:35:56.536Z,44.10
2018-02-18T09:38:24.056Z,43.73
2018-02-18T09:40:51.543Z,41.33
2018-02-18T09:43:19.056Z,42.20
2018-02-18T09:45:46.636Z,74.70
2018-02-18T09:48:14.164Z,96.80
2018-02-18T09:50:41.679Z,49.20
2018-02-18T09:53:09.187Z,41.53
2018-02-18T09:55:36.688Z,50.40
2018-02-18T09:58:04.944Z,44.73
2018-02-18T10:00:32.453Z,38.67
2018-02-18T10:02:59.959Z,43.60
2018-02-18T10:05:27.506Z,41.63
2018-02-18T10:07:55.008Z,45.20
2018-02-18T10:10:22.527Z,39.47
2018-02-18T10:12:50.788Z,40.80
2018-02-18T10:15:18.304Z,38.93
2018-02-18T10:17:45.822Z,161.87
2018-02-18T10:20:13.348Z,47.53
2018-02-18T10:22:40.860Z,46.83
2018-02-18T10:25:08.381Z,43.23
2018-02-18T10:27:35.889Z,38.03
2018-02-18T10:30:03.412Z,33.87
2018-02-18T10:32:31.668Z,37.13
2018-02-18T10:34:59.238Z,38.50
2018-02-18T10:37:27.044Z,30.47
2018-02-18T10:39:54.669Z,36.00
2018-02-18T10:45:25.238Z,37.30
2018-02-18T10:47:52.765Z,31.47
2018-02-18T10:50:20.316Z,32.03
2018-02-18T10:52:47.804Z,33.87
2018-02-18T10:55:16.072Z,34.53
2018-02-18T10:57:43.580Z,34.47
2018-02-18T11:00:11.091Z,34.10
2018-02-18T11:02:38.590Z,54.43
2018-02-18T11:05:06.951Z,45.40
2018-02-18T11:07:34.400Z,37.23
2018-02-18T11:10:01.915Z,34.67
2018-02-18T11:12:30.208Z,31.67
2018-02-18T11:14:57.736Z,28.47
2018-02-18T11:17:25.224Z,29.27
2018-02-18T11:19:52.735Z,27.87
2018-02-18T11:22:20.992Z,27.63
2018-02-18T11:24:48.504Z,32.40
2018-02-18T11:27:16.765Z,31.83
2018-02-18T11:29:44.275Z,26.97
2018-02-18T11:32:11.772Z,25.03
2018-02-18T11:34:39.299Z,34.43
2018-02-18T11:37:07.564Z,34.13
2018-02-18T11:39:35.853Z,29.23
2018-02-18T11:42:03.413Z,25.03
2018-02-18T11:44:30.894Z,26.80
2018-02-18T11:46:58.388Z,31.73
2018-02-18T11:49:26.667Z,28.20
2018-02-18T11:51:54.921Z,27.17
2018-02-18T11:54:22.427Z,24.20
2018-02-18T11:56:50.681Z,20.07
2018-02-18T11:59:18.195Z,20.33
2018-02-18T12:01:46.447Z,25.87
2018-02-18T12:04:13.972Z,21.93
2018-02-18T12:06:41.460Z,20.73
2018-02-18T12:09:08.971Z,35.67
2018-02-18T12:11:36.467Z,24.27
2018-02-18T12:14:03.974Z,25.37
2018-02-18T12:16:31.506Z,24.47
2018-02-18T12:18:59.000Z,20.57
2018-02-18T12:21:26.488Z,16.73
2018-02-18T12:23:53.987Z,18.50
2018-02-18T12:26:21.471Z,17.67
2018-02-18T12:28:49.745Z,21.80
2018-02-18T12:31:17.236Z,20.50
2018-02-18T12:33:45.536Z,30.17
2018-02-18T12:36:13.047Z,22.47
2018-02-18T12:38:40.536Z,17.60
2018-02-18T12:41:08.048Z,26.60
2018-02-18T12:43:36.316Z,20.83
2018-02-18T12:46:04.604Z,26.00
2018-02-18T12:48:32.100Z,20.20
2018-02-18T12:50:59.640Z,20.00
2018-02-18T12:53:27.914Z,23.43
2018-02-18T12:55:55.745Z,18.43
2018-02-18T12:58:23.236Z,46.33
2018-02-18T13:00:50.755Z,26.07
2018-02-18T13:03:19.029Z,24.20
2018-02-18T13:05:46.545Z,20.63
2018-02-18T13:08:14.080Z,22.30
2018-02-18T13:10:42.380Z,19.80
2018-02-18T13:13:10.633Z,20.33
2018-02-18T13:15:38.148Z,19.27
2018-02-18T13:18:06.404Z,18.47
2018-02-18T13:20:33.917Z,19.90
2018-02-18T13:23:01.400Z,21.20
2018-02-18T13:25:29.680Z,22.70
2018-02-18T13:27:57.168Z,19.47
2018-02-18T13:30:24.680Z,20.20
2018-02-18T13:32:52.179Z,21.63
2018-02-18T13:35:20.442Z,27.93
2018-02-18T13:37:47.983Z,20.00
2018-02-18T13:40:15.477Z,21.97
2018-02-18T13:42:43.743Z,25.93
2018-02-18T13:45:11.272Z,23.23
2018-02-18T13:47:38.764Z,23.80
2018-02-18T13:50:06.269Z,25.00
2018-02-18T13:52:33.766Z,23.40
2018-02-18T13:55:02.043Z,25.27
2018-02-18T13:57:29.534Z,26.47
2018-02-18T13:59:57.818Z,23.93
2018-02-18T14:02:26.071Z,22.27
2018-02-18T14:04:53.574Z,23.90
2018-02-18T14:07:21.831Z,21.90
2018-02-18T14:09:49.330Z,22.23
2018-02-18T14:12:17.592Z,26.27
2018-02-18T14:14:45.104Z,24.70
2018-02-18T14:17:12.592Z,24.33
2018-02-18T14:19:40.104Z,26.23
2018-02-18T14:22:07.596Z,25.53
2018-02-18T14:24:35.868Z,20.43
2018-02-18T14:27:03.370Z,29.07
2018-02-18T14:29:30.892Z,27.13
2018-02-18T14:31:58.385Z,31.27
2018-02-18T14:34:25.893Z,26.10
2018-02-18T14:36:53.380Z,28.17
2018-02-18T14:39:20.932Z,24.23
2018-02-18T14:42:00.206Z,28.50
2018-02-18T14:47:47.828Z,26.77
2018-02-18T14:50:28.068Z,20.47
2018-02-18T14:53:07.384Z,20.70
2018-02-18T14:58:43.328Z,26.30
2018-02-18T15:01:10.840Z,20.57
2018-02-18T15:03:39.088Z,22.27
2018-02-18T15:06:06.599Z,20.47
2018-02-18T15:08:34.853Z,20.07
2018-02-18T15:11:02.368Z,16.13
2018-02-18T15:13:29.865Z,16.57
2018-02-18T15:15:57.389Z,81.50
2018-02-18T15:18:25.646Z,26.13
2018-02-18T15:20:53.167Z,18.37
2018-02-18T15:23:20.655Z,25.40
2018-02-18T15:25:48.161Z,23.47
2018-02-18T15:28:15.647Z,22.23
2018-02-18T15:30:43.153Z,19.87
2018-02-18T15:33:10.643Z,19.70
2018-02-18T15:35:38.152Z,21.70
2018-02-18T15:38:05.643Z,25.63
2018-02-18T15:40:33.920Z,20.90
2018-02-18T15:43:02.199Z,31.13
2018-02-18T15:45:29.707Z,22.07
2018-02-18T15:47:57.187Z,21.60
2018-02-18T15:50:24.701Z,36.60
2018-02-18T15:52:52.207Z,28.90
2018-02-18T15:55:20.484Z,21.80
2018-02-18T15:57:48.744Z,26.63
2018-02-18T16:00:16.271Z,22.30
2018-02-18T16:02:43.755Z,19.40
2018-02-18T16:05:11.248Z,26.33
2018-02-18T16:07:38.760Z,20.53
2018-02-18T16:10:06.271Z,19.83
2018-02-18T16:12:33.771Z,17.70
2018-02-18T16:15:01.268Z,18.07
2018-02-18T16:17:29.535Z,23.57
2018-02-18T16:19:57.020Z,20.27
2018-02-18T16:22:25.285Z,18.87
2018-02-18T16:24:52.776Z,20.70
2018-02-18T16:27:21.047Z,19.20
2018-02-18T16:29:48.531Z,22.70
2018-02-18T16:32:16.044Z,17.50
2018-02-18T16:34:43.564Z,19.33
2018-02-18T16:37:11.094Z,18.47
2018-02-18T16:39:38.576Z,21.03
2018-02-18T16:42:06.089Z,63.47
2018-02-18T16:44:34.339Z,26.90
2018-02-18T16:47:01.844Z,25.73
2018-02-18T16:49:30.092Z,21.63
2018-02-18T16:51:57.595Z,24.50
2018-02-18T16:54:25.142Z,22.50
2018-02-18T16:56:52.600Z,39.70
2018-02-18T16:59:20.092Z,19.80
2018-02-18T17:01:47.604Z,30.07
2018-02-18T17:04:15.099Z,27.50
2018-02-18T17:06:42.600Z,21.73
2018-02-18T17:09:10.092Z,26.70
2018-02-18T17:11:38.363Z,34.60
2018-02-18T17:14:05.847Z,29.23
2018-02-18T17:16:33.348Z,35.50
2018-02-18T17:19:08.904Z,27.63
2018-02-18T17:21:37.195Z,30.27
2018-02-18T17:24:05.428Z,27.47
2018-02-18T17:26:33.387Z,26.10
2018-02-18T17:29:00.916Z,25.30
2018-02-18T17:31:29.187Z,30.80
2018-02-18T17:33:57.639Z,31.50
2018-02-18T17:36:25.142Z,29.93
2018-02-18T17:38:52.645Z,36.17
2018-02-18T17:41:20.903Z,23.50
2018-02-18T17:43:48.391Z,39.63
2018-02-18T17:46:16.668Z,29.80
2018-02-18T17:48:44.164Z,32.00
2018-02-18T17:51:12.437Z,31.73
2018-02-18T17:53:39.914Z,33.37
2018-02-18T17:56:10.120Z,38.60
2018-02-18T17:58:37.619Z,28.13
2018-02-18T18:01:05.883Z,32.53
2018-02-18T18:03:33.371Z,28.97
2018-02-18T18:06:00.877Z,32.63
2018-02-18T18:08:28.385Z,28.17
2018-02-18T18:10:55.875Z,37.13
2018-02-18T18:13:23.361Z,40.30
2018-02-18T18:15:51.635Z,29.33
2018-02-18T18:18:19.899Z,42.80
2018-02-18T18:20:47.387Z,38.03
2018-02-18T18:23:15.348Z,29.77
2018-02-18T18:25:42.835Z,34.93
2018-02-18T18:28:10.347Z,31.97
2018-02-18T18:30:37.836Z,32.77
2018-02-18T18:33:05.383Z,29.37
2018-02-18T18:35:32.835Z,30.70
2018-02-18T18:38:01.104Z,30.53
2018-02-18T18:40:28.596Z,32.43
2018-02-18T18:42:56.904Z,29.60
2018-02-18T18:45:24.388Z,27.13
2018-02-18T18:47:51.888Z,29.13
2018-02-18T18:50:19.384Z,34.17
2018-02-18T18:52:46.887Z,34.70
2018-02-18T18:55:14.383Z,30.83
2018-02-18T18:57:41.888Z,31.33
2018-02-18T19:00:09.374Z,30.40
2018-02-18T19:02:41.117Z,30.60
2018-02-18T19:05:08.619Z,35.10
2018-02-18T19:07:37.167Z,33.77
2018-02-18T19:10:04.655Z,33.40
2018-02-18T19:12:32.169Z,37.00
2018-02-18T19:14:59.663Z,33.60
2018-02-18T19:17:27.178Z,37.70
2018-02-18T19:19:55.491Z,32.20
2018-02-18T19:22:22.964Z,33.20
2018-02-18T19:24:50.475Z,35.03
2018-02-18T19:27:17.958Z,34.47
2018-02-18T19:29:45.454Z,38.53
2018-02-18T19:32:16.773Z,41.93
2018-02-18T19:34:44.289Z,37.53
2018-02-18T19:37:12.541Z,32.30
2018-02-18T19:39:40.044Z,34.23
2018-02-18T19:42:08.295Z,30.33
2018-02-18T19:44:35.824Z,32.43
2018-02-18T19:47:03.318Z,28.00
2018-02-18T19:49:30.809Z,33.23
2018-02-18T19:51:58.315Z,28.87
2018-02-18T19:54:26.573Z,29.90
2018-02-18T19:56:54.077Z,30.93
2018-02-18T19:59:21.556Z,28.40
2018-02-18T20:01:49.836Z,29.93
2018-02-18T20:04:18.084Z,31.43
2018-02-18T20:06:45.594Z,39.50
2018-02-18T20:09:13.837Z,34.93
2018-02-18T20:11:41.344Z,30.87
2018-02-18T20:14:09.608Z,43.90
2018-02-18T20:16:37.111Z,30.90
2018-02-18T20:19:05.369Z,32.63
2018-02-18T20:21:41.209Z,30.43
2018-02-18T20:24:08.695Z,30.83
2018-02-18T20:26:36.172Z,33.13
2018-02-18T20:29:03.679Z,31.33
2018-02-18T20:31:31.932Z,30.90
2018-02-18T20:33:59.431Z,34.60
2018-02-18T20:36:27.675Z,37.83
2018-02-18T20:38:55.184Z,31.23
2018-02-18T20:41:23.437Z,31.63
2018-02-18T20:43:50.944Z,31.40
2018-02-18T20:46:18.423Z,34.23
2018-02-18T20:48:46.687Z,33.70
2018-02-18T20:51:14.180Z,32.60
2018-02-18T20:53:41.751Z,99.83
2018-02-18T20:56:10.120Z,69.23
2018-02-18T20:58:37.603Z,34.73
2018-02-18T21:01:05.872Z,29.70
2018-02-18T21:03:33.358Z,32.13
2018-02-18T21:06:01.811Z,35.50
2018-02-18T21:08:29.296Z,35.67
2018-02-18T21:10:56.799Z,32.43
2018-02-18T21:13:25.053Z,36.47
2018-02-18T21:15:52.567Z,38.77
2018-02-18T21:18:20.821Z,41.17
2018-02-18T21:20:48.329Z,40.20
2018-02-18T21:23:15.817Z,44.20
2018-02-18T21:25:43.317Z,33.97
2018-02-18T21:28:10.812Z,31.87
2018-02-18T21:30:38.316Z,72.07
2018-02-18T21:33:05.803Z,48.83
2018-02-18T21:35:33.308Z,39.73
2018-02-18T21:38:00.791Z,29.50
2018-02-18T21:40:28.272Z,32.47
2018-02-18T21:42:56.544Z,33.30
2018-02-18T21:45:24.037Z,36.30
2018-02-18T21:47:52.300Z,32.27
2018-02-18T21:50:19.792Z,40.53
2018-02-18T21:52:48.061Z,33.90
2018-02-18T21:55:15.561Z,34.63
2018-02-18T21:57:43.827Z,41.23
2018-02-18T22:00:11.316Z,33.67
2018-02-18T22:02:38.829Z,35.90
2018-02-18T22:05:07.311Z,33.60
2018-02-18T22:07:34.811Z,35.67
2018-02-18T22:10:02.291Z,77.93
2018-02-18T22:12:29.788Z,65.47
2018-02-18T22:14:58.035Z,40.53
2018-02-18T22:17:25.535Z,31.73
2018-02-18T22:19:53.780Z,34.23
2018-02-18T22:22:21.294Z,34.87
2018-02-18T22:24:49.560Z,31.27
2018-02-18T22:27:17.059Z,39.50
2018-02-18T22:29:45.303Z,30.90
2018-02-18T22:32:12.787Z,33.60
2018-02-18T22:34:40.297Z,27.60
2018-02-18T22:37:08.557Z,35.17
2018-02-18T22:39:36.058Z,29.10
2018-02-18T22:42:03.551Z,29.90
2018-02-18T22:44:31.051Z,27.93
2018-02-18T22:46:58.536Z,29.17
2018-02-18T22:49:26.041Z,26.50
2018-02-18T22:51:53.523Z,28.10
2018-02-18T22:54:21.023Z,29.13
2018-02-18T22:56:48.513Z,27.17
2018-02-18T22:59:16.003Z,27.30
2018-02-18T23:01:44.336Z,23.10
2018-02-18T23:04:11.815Z,25.10
2018-02-18T23:06:39.314Z,31.13
2018-02-18T23:09:06.799Z,34.97
2018-02-18T23:11:35.080Z,29.13
2018-02-18T23:14:02.567Z,27.07
2018-02-18T23:16:30.838Z,29.70
2018-02-18T23:18:58.319Z,26.80
2018-02-18T23:21:26.592Z,34.60
2018-02-18T23:23:54.076Z,28.17
2018-02-18T23:26:22.345Z,30.87
2018-02-18T23:28:49.831Z,28.10
2018-02-18T23:31:18.076Z,28.27
2018-02-18T23:33:45.581Z,25.47
2018-02-18T23:36:13.104Z,32.53
2018-02-18T23:38:40.586Z,31.77
2018-02-18T23:41:08.076Z,29.03
2018-02-18T23:43:35.574Z,31.00
2018-02-18T23:46:03.835Z,26.90
2018-02-18T23:48:31.352Z,27.50
2018-02-18T23:50:58.839Z,24.33
2018-02-18T23:53:26.335Z,28.83
2018-02-18T23:55:53.819Z,32.67
2018-02-18T23:58:21.328Z,26.17
